createdAt,value
2019-03-19T00:01:14.087Z,97746.38
2019-03-19T00:03:44.659Z,97753.97
2019-03-19T00:06:15.562Z,97747.54
2019-03-19T00:08:48.128Z,97751.94
2019-03-19T00:11:18.846Z,97756.85
2019-03-19T00:13:49.701Z,97753.37
2019-03-19T00:16:22.286Z,97751.09
2019-03-19T00:18:53.224Z,97754.34
2019-03-19T00:21:23.775Z,97755.18
2019-03-19T00:23:54.558Z,97755.72
2019-03-19T00:26:25.181Z,97758.24
2019-03-19T00:28:57.604Z,97758.30
2019-03-19T00:31:28.344Z,97754.42
2019-03-19T00:33:58.898Z,97765.92
2019-03-19T00:36:30.719Z,97755.98
2019-03-19T00:39:01.929Z,97760.09
2019-03-19T00:41:32.499Z,97762.65
2019-03-19T00:44:02.996Z,97762.84
2019-03-19T00:46:33.613Z,97763.52
2019-03-19T00:49:06.650Z,97764.77
2019-03-19T00:51:36.706Z,97761.34
2019-03-19T00:54:07.487Z,97757.52
2019-03-19T00:56:38.187Z,97752.19
2019-03-19T00:59:08.957Z,97749.98
2019-03-19T01:01:39.451Z,97743.52
2019-03-19T01:04:10.185Z,97749.45
2019-03-19T01:06:41.040Z,97739.78
2019-03-19T01:09:11.549Z,97739.73
2019-03-19T01:11:42.088Z,97740.36
2019-03-19T01:14:12.718Z,97740.53
2019-03-19T01:16:43.648Z,97742.17
2019-03-19T01:19:16.812Z,97750.30
2019-03-19T01:21:47.610Z,97744.06
2019-03-19T01:24:18.383Z,97743.37
2019-03-19T01:26:49.151Z,97743.03
2019-03-19T01:29:21.678Z,97741.67
2019-03-19T01:31:52.103Z,97743.37
2019-03-19T01:34:25.828Z,97747.03
2019-03-19T01:36:56.395Z,97745.16
2019-03-19T01:39:27.039Z,97751.34
2019-03-19T01:41:57.718Z,97754.39
2019-03-19T01:44:31.086Z,97758.63
2019-03-19T01:47:01.758Z,97758.04
2019-03-19T01:49:32.721Z,97749.98
2019-03-19T01:52:04.472Z,97756.14
2019-03-19T01:54:35.086Z,97761.72
2019-03-19T01:57:08.469Z,97767.63
2019-03-19T01:59:40.969Z,97765.30
2019-03-19T02:02:11.647Z,97767.81
2019-03-19T02:04:42.428Z,97774.99
2019-03-19T02:07:13.136Z,97772.95
2019-03-19T02:09:43.982Z,97778.00
2019-03-19T02:12:14.731Z,97772.39
2019-03-19T02:14:45.494Z,97777.80
2019-03-19T02:17:19.475Z,97778.68
2019-03-19T02:19:50.183Z,97779.59
2019-03-19T02:22:20.951Z,97780.31
2019-03-19T02:24:54.148Z,97775.39
2019-03-19T02:27:24.643Z,97774.47
2019-03-19T02:29:59.360Z,97775.67
2019-03-19T02:32:30.178Z,97780.31
2019-03-19T02:35:01.043Z,97782.54
2019-03-19T02:37:31.764Z,97789.03
2019-03-19T02:40:02.301Z,97787.52
2019-03-19T02:42:33.122Z,97788.27
2019-03-19T02:45:03.843Z,97794.16
2019-03-19T02:47:34.552Z,97790.35
2019-03-19T02:50:06.054Z,97788.94
2019-03-19T02:52:38.432Z,97787.35
2019-03-19T02:55:12.790Z,97786.20
2019-03-19T02:57:43.382Z,97790.25
2019-03-19T03:00:16.944Z,97785.83
2019-03-19T03:02:47.976Z,97795.91
2019-03-19T03:05:19.013Z,97794.34
2019-03-19T03:07:50.910Z,97794.50
2019-03-19T03:10:21.715Z,97794.28
2019-03-19T03:12:52.382Z,97797.27
2019-03-19T03:15:23.056Z,97795.44
2019-03-19T03:17:54.973Z,97795.05
2019-03-19T03:20:25.835Z,97797.72
2019-03-19T03:22:56.531Z,97796.25
2019-03-19T03:25:27.093Z,97803.89
2019-03-19T03:27:57.837Z,97810.09
2019-03-19T03:30:29.805Z,97808.36
2019-03-19T03:33:00.750Z,97808.36
2019-03-19T03:35:31.354Z,97807.11
2019-03-19T03:38:04.979Z,97803.33
2019-03-19T03:40:37.792Z,97804.21
2019-03-19T03:43:08.379Z,97809.16
2019-03-19T03:45:39.063Z,97810.19
2019-03-19T03:48:09.740Z,97807.64
2019-03-19T03:50:40.592Z,97813.25
2019-03-19T03:53:11.145Z,97817.11
2019-03-19T03:55:42.116Z,97818.81
2019-03-19T03:58:14.671Z,97815.88
2019-03-19T04:00:48.072Z,97821.22
2019-03-19T04:03:19.877Z,97818.54
2019-03-19T04:05:51.802Z,97815.47
2019-03-19T04:08:22.432Z,97818.16
2019-03-19T04:10:55.490Z,97814.47
2019-03-19T04:13:27.884Z,97827.63
2019-03-19T04:15:58.442Z,97825.22
2019-03-19T04:18:28.842Z,97820.81
2019-03-19T04:20:59.299Z,97828.51
2019-03-19T04:23:30.087Z,97826.45
2019-03-19T04:26:00.555Z,97837.22
2019-03-19T04:28:31.337Z,97849.03
2019-03-19T04:31:01.948Z,97852.42
2019-03-19T04:33:32.437Z,97849.37
2019-03-19T04:36:02.964Z,97852.13
2019-03-19T04:38:34.852Z,97851.52
2019-03-19T04:41:05.447Z,97855.83
2019-03-19T04:43:35.962Z,97850.89
2019-03-19T04:46:06.654Z,97852.20
2019-03-19T04:48:37.200Z,97847.88
2019-03-19T04:51:11.173Z,97852.53
2019-03-19T04:53:43.030Z,97855.38
2019-03-19T04:56:13.411Z,97863.27
2019-03-19T04:58:44.256Z,97860.80
2019-03-19T05:01:14.833Z,97864.23
2019-03-19T05:03:45.446Z,97871.19
2019-03-19T05:06:15.935Z,97871.55
2019-03-19T05:08:46.600Z,97869.80
2019-03-19T05:11:17.279Z,97877.56
2019-03-19T05:13:47.864Z,97872.34
2019-03-19T05:16:18.519Z,97871.83
2019-03-19T05:18:49.020Z,97877.52
2019-03-19T05:21:19.827Z,97883.39
2019-03-19T05:23:50.343Z,97892.21
2019-03-19T05:26:21.017Z,97897.27
2019-03-19T05:28:53.027Z,97896.20
2019-03-19T05:31:24.096Z,97893.73
2019-03-19T05:33:56.397Z,97895.52
2019-03-19T05:36:26.855Z,97906.35
2019-03-19T05:38:57.426Z,97898.22
2019-03-19T05:41:28.027Z,97908.03
2019-03-19T05:43:58.762Z,97897.95
2019-03-19T05:46:29.314Z,97905.83
2019-03-19T05:49:00.030Z,97903.44
2019-03-19T05:51:30.382Z,97906.94
2019-03-19T05:54:01.033Z,97912.63
2019-03-19T05:56:31.857Z,97913.03
2019-03-19T05:59:02.460Z,97918.97
2019-03-19T06:01:32.910Z,97919.07
2019-03-19T06:04:03.503Z,97918.24
2019-03-19T06:06:34.214Z,97926.23
2019-03-19T06:09:05.237Z,97923.21
2019-03-19T06:11:35.695Z,97924.95
2019-03-19T06:14:06.207Z,97925.75
2019-03-19T06:16:36.929Z,97921.23
2019-03-19T06:19:07.354Z,97919.92
2019-03-19T06:21:37.838Z,97919.44
2019-03-19T06:24:08.556Z,97919.64
2019-03-19T06:26:39.153Z,97917.73
2019-03-19T06:29:09.864Z,97917.12
2019-03-19T06:31:40.242Z,97918.69
2019-03-19T06:34:11.003Z,97913.42
2019-03-19T06:36:41.360Z,97913.77
2019-03-19T06:39:12.026Z,97922.52
2019-03-19T06:41:42.819Z,97925.98
2019-03-19T06:44:13.535Z,97923.67
2019-03-19T06:46:44.017Z,97928.38
2019-03-19T06:49:14.854Z,97929.96
2019-03-19T06:51:45.695Z,97926.89
2019-03-19T06:54:16.293Z,97929.23
2019-03-19T06:56:46.813Z,97932.59
2019-03-19T06:59:17.201Z,97928.94
2019-03-19T07:01:47.615Z,97936.27
2019-03-19T07:04:19.490Z,97935.58
2019-03-19T07:06:50.100Z,97940.24
2019-03-19T07:09:20.622Z,97935.91
2019-03-19T07:11:51.105Z,97939.62
2019-03-19T07:14:21.792Z,97941.09
2019-03-19T07:16:52.811Z,97943.87
2019-03-19T07:19:23.570Z,97943.50
2019-03-19T07:21:53.982Z,97947.19
2019-03-19T07:24:24.282Z,97939.49
2019-03-19T07:26:54.885Z,97941.33
2019-03-19T07:29:26.183Z,97945.56
2019-03-19T07:31:56.725Z,97941.57
2019-03-19T07:34:27.300Z,97942.69
2019-03-19T07:36:57.829Z,97945.95
2019-03-19T07:39:28.460Z,97941.80
2019-03-19T07:41:59.162Z,97948.03
2019-03-19T07:44:29.441Z,97939.74
2019-03-19T07:47:00.012Z,97943.80
2019-03-19T07:49:30.515Z,97941.82
2019-03-19T07:52:01.152Z,97942.64
2019-03-19T07:54:31.557Z,97945.44
2019-03-19T07:57:02.108Z,97953.38
2019-03-19T07:59:32.732Z,97943.87
2019-03-19T08:02:03.360Z,97944.24
2019-03-19T08:04:33.717Z,97943.80
2019-03-19T08:07:04.214Z,97942.53
2019-03-19T08:09:34.760Z,97946.21
2019-03-19T08:12:05.396Z,97945.41
2019-03-19T08:14:35.473Z,97943.03
2019-03-19T08:17:06.056Z,97939.56
2019-03-19T08:19:36.538Z,97946.86
2019-03-19T08:22:07.233Z,97942.63
2019-03-19T08:24:37.784Z,97932.38
2019-03-19T08:27:08.397Z,97931.38
2019-03-19T08:29:38.799Z,97933.35
2019-03-19T08:32:09.255Z,97935.39
2019-03-19T08:34:40.162Z,97934.33
2019-03-19T08:37:10.646Z,97925.94
2019-03-19T08:39:40.937Z,97928.84
2019-03-19T08:42:11.493Z,97927.09
2019-03-19T08:44:41.941Z,97930.45
2019-03-19T08:47:12.524Z,97937.54
2019-03-19T08:49:42.878Z,97927.94
2019-03-19T08:52:13.301Z,97932.98
2019-03-19T08:54:43.634Z,97928.55
2019-03-19T08:57:14.304Z,97932.34
2019-03-19T08:59:44.762Z,97924.19
2019-03-19T09:02:15.442Z,97927.65
2019-03-19T09:04:46.164Z,97928.45
2019-03-19T09:07:16.764Z,97938.33
2019-03-19T09:09:47.074Z,97929.14
2019-03-19T09:12:17.712Z,97942.33
2019-03-19T09:14:48.244Z,97931.93
2019-03-19T09:17:18.803Z,97929.58
2019-03-19T09:19:49.405Z,97926.45
2019-03-19T09:22:19.940Z,97931.84
2019-03-19T09:24:50.226Z,97927.14
2019-03-19T09:27:20.701Z,97920.24
2019-03-19T09:29:51.178Z,97923.32
2019-03-19T09:32:21.963Z,97930.05
2019-03-19T09:34:52.562Z,97928.16
2019-03-19T09:37:23.181Z,97925.17
2019-03-19T09:39:53.522Z,97918.39
2019-03-19T09:42:23.868Z,97919.63
2019-03-19T09:44:58.389Z,97909.85
2019-03-19T09:47:26.605Z,97920.14
2019-03-19T09:49:57.117Z,97913.81
2019-03-19T09:52:27.559Z,97911.11
2019-03-19T09:54:58.357Z,97907.75
2019-03-19T09:57:28.820Z,97913.88
2019-03-19T09:59:59.097Z,97911.53
2019-03-19T10:02:29.453Z,97914.20
2019-03-19T10:05:00.044Z,97916.59
2019-03-19T10:07:30.460Z,97923.34
2019-03-19T10:10:00.825Z,97922.90
2019-03-19T10:12:31.343Z,97908.41
2019-03-19T10:15:02.065Z,97914.08
2019-03-19T10:17:32.560Z,97907.31
2019-03-19T10:20:03.131Z,97912.27
2019-03-19T10:22:33.497Z,97910.34
2019-03-19T10:25:04.212Z,97905.34
2019-03-19T10:27:34.995Z,97897.52
2019-03-19T10:30:06.370Z,97902.97
2019-03-19T10:32:36.698Z,97898.66
2019-03-19T10:35:09.670Z,97893.46
2019-03-19T10:37:40.072Z,97901.41
2019-03-19T10:40:12.214Z,97903.45
2019-03-19T10:42:42.800Z,97900.83
2019-03-19T10:45:13.603Z,97904.42
2019-03-19T10:47:44.097Z,97905.00
2019-03-19T10:50:19.635Z,97895.92
2019-03-19T10:52:50.381Z,97896.50
2019-03-19T10:55:21.160Z,97890.39
2019-03-19T10:57:51.885Z,97887.38
2019-03-19T11:00:23.256Z,97890.97
2019-03-19T11:02:53.988Z,97887.55
2019-03-19T11:05:24.728Z,97884.03
2019-03-19T11:07:55.329Z,97885.16
2019-03-19T11:10:28.396Z,97886.13
2019-03-19T11:12:59.115Z,97879.11
2019-03-19T11:15:31.676Z,97882.58
2019-03-19T11:18:01.940Z,97887.99
2019-03-19T11:20:32.642Z,97878.34
2019-03-19T11:23:03.270Z,97872.83
2019-03-19T11:25:33.968Z,97863.14
2019-03-19T11:28:04.372Z,97863.97
2019-03-19T11:30:34.997Z,97854.56
2019-03-19T11:33:05.538Z,97847.77
2019-03-19T11:35:35.843Z,97854.02
2019-03-19T11:38:06.563Z,97855.44
2019-03-19T11:40:37.135Z,97854.32
2019-03-19T11:43:07.803Z,97851.22
2019-03-19T11:45:38.373Z,97847.95
2019-03-19T11:48:09.092Z,97847.19
2019-03-19T11:50:39.489Z,97852.13
2019-03-19T11:53:10.249Z,97851.68
2019-03-19T11:55:40.916Z,97855.45
2019-03-19T11:58:11.430Z,97847.53
2019-03-19T12:00:46.378Z,97852.44
2019-03-19T12:03:17.213Z,97846.88
2019-03-19T12:05:47.947Z,97849.04
2019-03-19T12:08:18.480Z,97846.56
2019-03-19T12:10:48.833Z,97841.81
2019-03-19T12:13:19.526Z,97842.09
2019-03-19T12:15:50.026Z,97841.00
2019-03-19T12:18:20.534Z,97845.44
2019-03-19T12:20:50.998Z,97840.91
2019-03-19T12:23:21.605Z,97840.36
2019-03-19T12:25:51.965Z,97830.40
2019-03-19T12:28:22.297Z,97826.16
2019-03-19T12:30:54.841Z,97822.85
2019-03-19T12:33:25.219Z,97818.89
2019-03-19T12:35:57.801Z,97813.00
2019-03-19T12:38:27.949Z,97816.33
2019-03-19T12:40:58.281Z,97817.20
2019-03-19T12:43:28.825Z,97817.94
2019-03-19T12:45:59.254Z,97831.85
2019-03-19T12:48:29.496Z,97824.56
2019-03-19T12:50:59.901Z,97831.01
2019-03-19T12:53:30.564Z,97834.08
2019-03-19T12:56:01.774Z,97831.98
2019-03-19T12:58:32.240Z,97819.15
2019-03-19T13:01:02.867Z,97816.81
2019-03-19T13:03:33.087Z,97819.95
2019-03-19T13:06:03.830Z,97815.87
2019-03-19T13:08:34.619Z,97815.16
2019-03-19T13:11:05.082Z,97807.23
2019-03-19T13:13:35.576Z,97811.66
2019-03-19T13:16:06.022Z,97806.99
2019-03-19T13:18:36.487Z,97804.34
2019-03-19T13:21:06.901Z,97803.58
2019-03-19T13:23:37.313Z,97793.28
2019-03-19T13:26:07.702Z,97798.66
2019-03-19T13:28:38.035Z,97795.52
2019-03-19T13:31:08.443Z,97796.53
2019-03-19T13:33:38.812Z,97788.36
2019-03-19T13:36:09.502Z,97790.16
2019-03-19T13:38:40.079Z,97796.52
2019-03-19T13:41:10.781Z,97782.92
2019-03-19T13:43:41.547Z,97786.91
2019-03-19T13:46:12.026Z,97790.97
2019-03-19T13:48:42.703Z,97783.94
2019-03-19T13:51:13.241Z,97793.30
2019-03-19T13:53:44.106Z,97795.28
2019-03-19T13:56:14.492Z,97790.13
2019-03-19T13:58:44.871Z,97785.95
2019-03-19T14:01:15.506Z,97792.09
2019-03-19T14:03:46.080Z,97791.59
2019-03-19T14:06:16.565Z,97785.29
2019-03-19T14:08:47.261Z,97795.49
2019-03-19T14:11:20.536Z,97794.02
2019-03-19T14:13:51.381Z,97790.69
2019-03-19T14:16:21.950Z,97792.23
2019-03-19T14:18:52.625Z,97793.71
2019-03-19T14:21:23.370Z,97788.13
2019-03-19T14:23:53.739Z,97796.14
2019-03-19T14:26:24.413Z,97797.11
2019-03-19T14:28:54.998Z,97794.64
2019-03-19T14:31:25.430Z,97794.62
2019-03-19T14:33:55.753Z,97792.43
2019-03-19T14:36:26.298Z,97796.91
2019-03-19T14:38:56.720Z,97805.84
2019-03-19T14:41:27.449Z,97801.46
2019-03-19T14:43:57.798Z,97806.31
2019-03-19T14:46:28.423Z,97806.60
2019-03-19T14:48:59.156Z,97811.80
2019-03-19T14:51:29.509Z,97812.17
2019-03-19T14:53:59.950Z,97814.36
2019-03-19T14:56:30.733Z,97813.73
2019-03-19T14:59:01.281Z,97815.13
2019-03-19T15:01:31.773Z,97817.88
2019-03-19T15:04:02.284Z,97820.92
2019-03-19T15:06:32.717Z,97821.56
2019-03-19T15:09:03.364Z,97829.66
2019-03-19T15:11:33.837Z,97828.06
2019-03-19T15:14:04.303Z,97831.38
2019-03-19T15:16:34.849Z,97829.04
2019-03-19T15:19:05.302Z,97836.91
2019-03-19T15:21:35.689Z,97834.30
2019-03-19T15:24:06.327Z,97831.24
2019-03-19T15:26:36.899Z,97844.34
2019-03-19T15:29:07.381Z,97837.48
2019-03-19T15:31:38.213Z,97837.00
2019-03-19T15:34:09.093Z,97841.63
2019-03-19T15:36:39.573Z,97840.30
2019-03-19T15:39:10.603Z,97835.00
2019-03-19T15:41:41.108Z,97838.65
2019-03-19T15:44:11.873Z,97850.44
2019-03-19T15:46:42.420Z,97850.94
2019-03-19T15:49:12.902Z,97851.67
2019-03-19T15:51:43.542Z,97864.41
2019-03-19T15:54:14.201Z,97860.04
2019-03-19T15:56:44.622Z,97866.38
2019-03-19T15:59:14.802Z,97864.59
2019-03-19T16:01:45.155Z,97873.22
2019-03-19T16:04:15.710Z,97878.32
2019-03-19T16:06:46.121Z,97882.93
2019-03-19T16:09:16.797Z,97890.38
2019-03-19T16:11:47.794Z,97891.45
2019-03-19T16:14:18.752Z,97891.97
2019-03-19T16:16:49.284Z,97895.59
2019-03-19T16:19:19.994Z,97899.36
2019-03-19T16:21:50.771Z,97903.26
2019-03-19T16:24:21.251Z,97906.67
2019-03-19T16:26:52.066Z,97914.91
2019-03-19T16:29:22.735Z,97919.02
2019-03-19T16:31:53.421Z,97927.87
2019-03-19T16:34:24.007Z,97942.69
2019-03-19T16:36:54.791Z,97959.08
2019-03-19T16:39:25.427Z,97964.86
2019-03-19T16:41:56.102Z,97976.13
2019-03-19T16:44:26.536Z,97980.29
2019-03-19T16:46:57.199Z,97990.17
2019-03-19T16:49:27.888Z,97997.24
2019-03-19T16:51:58.392Z,98002.09
2019-03-19T16:54:28.982Z,98002.41
2019-03-19T16:56:59.511Z,98007.88
2019-03-19T16:59:30.027Z,98010.32
2019-03-19T17:02:01.671Z,98012.84
2019-03-19T17:04:32.867Z,98017.83
2019-03-19T17:07:03.583Z,98017.06
2019-03-19T17:09:33.976Z,98009.97
2019-03-19T17:12:04.561Z,98012.25
2019-03-19T17:14:35.048Z,98021.33
2019-03-19T17:17:05.687Z,98024.17
2019-03-19T17:19:36.155Z,98038.22
2019-03-19T17:22:06.978Z,98040.12
2019-03-19T17:24:37.445Z,98047.63
2019-03-19T17:27:07.772Z,98046.85
2019-03-19T17:29:38.298Z,98051.13
2019-03-19T17:32:12.799Z,98060.20
2019-03-19T17:34:41.036Z,98053.86
2019-03-19T17:37:11.655Z,98062.52
2019-03-19T17:39:42.411Z,98064.97
2019-03-19T17:42:13.107Z,98067.06
2019-03-19T17:44:43.613Z,98072.47
2019-03-19T17:47:14.447Z,98070.16
2019-03-19T17:49:46.778Z,98078.23
2019-03-19T17:52:17.217Z,98082.95
2019-03-19T17:54:47.595Z,98082.77
2019-03-19T17:57:18.250Z,98083.52
2019-03-19T17:59:48.894Z,98096.25
2019-03-19T18:02:23.852Z,98104.70
2019-03-19T18:04:51.639Z,98112.32
2019-03-19T18:07:22.911Z,98113.98
2019-03-19T18:09:53.422Z,98120.93
2019-03-19T18:12:24.101Z,98137.82
2019-03-19T18:14:54.609Z,98142.61
2019-03-19T18:17:25.609Z,98149.42
2019-03-19T18:19:56.278Z,98161.84
2019-03-19T18:22:32.162Z,98180.02
2019-03-19T18:25:03.325Z,98189.52
2019-03-19T18:27:34.666Z,98201.91
2019-03-19T18:30:06.887Z,98216.51
2019-03-19T18:32:37.742Z,98216.87
2019-03-19T18:35:08.722Z,98234.51
2019-03-19T18:37:41.946Z,98229.72
2019-03-19T18:40:12.718Z,98236.23
2019-03-19T18:42:43.380Z,98248.11
2019-03-19T18:45:13.891Z,98242.86
2019-03-19T18:47:44.472Z,98243.55
2019-03-19T18:50:17.810Z,98254.76
2019-03-19T18:52:48.514Z,98257.64
2019-03-19T18:55:19.410Z,98276.00
2019-03-19T18:57:49.947Z,98288.53
2019-03-19T19:00:23.581Z,98297.86
2019-03-19T19:02:55.931Z,98314.45
2019-03-19T19:05:26.921Z,98317.37
2019-03-19T19:07:58.806Z,98329.11
2019-03-19T19:10:29.572Z,98331.08
2019-03-19T19:13:00.488Z,98343.62
2019-03-19T19:15:31.324Z,98345.86
2019-03-19T19:18:02.121Z,98343.38
2019-03-19T19:20:32.709Z,98349.73
2019-03-19T19:23:03.148Z,98341.88
2019-03-19T19:25:33.758Z,98344.09
2019-03-19T19:28:04.314Z,98353.41
2019-03-19T19:30:35.863Z,98349.38
2019-03-19T19:33:06.697Z,98352.72
2019-03-19T19:35:37.529Z,98366.12
2019-03-19T19:38:10.693Z,98373.58
2019-03-19T19:40:43.347Z,98382.82
2019-03-19T19:43:13.866Z,98392.87
2019-03-19T19:45:45.817Z,98389.75
2019-03-19T19:48:16.437Z,98391.76
2019-03-19T19:50:47.442Z,98393.50
2019-03-19T19:53:18.089Z,98401.30
2019-03-19T19:55:51.798Z,98412.70
2019-03-19T19:58:22.405Z,98413.30
2019-03-19T20:00:53.920Z,98406.80
2019-03-19T20:03:24.335Z,98401.88
2019-03-19T20:05:55.407Z,98392.80
2019-03-19T20:08:25.869Z,98395.32
2019-03-19T20:10:56.558Z,98389.78
2019-03-19T20:13:28.551Z,98383.61
2019-03-19T20:16:00.379Z,98390.65
2019-03-19T20:18:32.482Z,98386.45
2019-03-19T20:21:03.092Z,98389.03
2019-03-19T20:23:33.916Z,98384.87
2019-03-19T20:26:04.551Z,98389.66
2019-03-19T20:28:35.466Z,98383.07
2019-03-19T20:31:06.221Z,98379.23
2019-03-19T20:33:36.861Z,98378.24
2019-03-19T20:36:07.584Z,98384.20
2019-03-19T20:38:38.146Z,98374.59
2019-03-19T20:41:08.748Z,98367.80
2019-03-19T20:43:39.220Z,98357.19
2019-03-19T20:46:09.713Z,98353.24
2019-03-19T20:48:40.460Z,98346.17
2019-03-19T20:51:11.206Z,98350.24
2019-03-19T20:53:43.150Z,98358.96
2019-03-19T20:56:15.003Z,98356.95
2019-03-19T20:58:45.841Z,98356.72
2019-03-19T21:01:16.594Z,98354.08
2019-03-19T21:03:47.182Z,98351.05
2019-03-19T21:06:17.853Z,98367.55
2019-03-19T21:08:48.709Z,98360.22
2019-03-19T21:11:19.662Z,98359.17
2019-03-19T21:13:50.272Z,98355.58
2019-03-19T21:16:21.350Z,98352.19
2019-03-19T21:18:53.748Z,98348.13
2019-03-19T21:21:26.137Z,98344.16
2019-03-19T21:23:57.054Z,98343.20
2019-03-19T21:26:27.736Z,98343.89
2019-03-19T21:28:58.840Z,98334.98
2019-03-19T21:31:29.797Z,98342.71
2019-03-19T21:34:00.382Z,98333.55
2019-03-19T21:36:32.763Z,98342.02
2019-03-19T21:39:04.684Z,98331.18
2019-03-19T21:41:36.258Z,98339.20
2019-03-19T21:44:06.723Z,98338.27
2019-03-19T21:46:37.554Z,98340.22
2019-03-19T21:49:10.753Z,98346.75
2019-03-19T21:51:40.448Z,98343.66
2019-03-19T21:54:11.001Z,98337.94
2019-03-19T21:56:41.567Z,98343.53
2019-03-19T21:59:12.253Z,98346.98
2019-03-19T22:01:42.788Z,98338.91
2019-03-19T22:04:13.458Z,98343.70
2019-03-19T22:06:44.264Z,98343.38
2019-03-19T22:09:14.964Z,98343.50
2019-03-19T22:11:45.583Z,98342.28
2019-03-19T22:14:16.155Z,98345.27
2019-03-19T22:16:47.091Z,98346.47
2019-03-19T22:19:19.013Z,98344.77
2019-03-19T22:21:49.718Z,98347.91
2019-03-19T22:24:20.436Z,98339.16
2019-03-19T22:26:51.009Z,98342.25
2019-03-19T22:29:21.780Z,98345.95
2019-03-19T22:31:54.361Z,98340.61
2019-03-19T22:34:24.621Z,98342.98
2019-03-19T22:36:55.383Z,98341.47
2019-03-19T22:39:26.147Z,98347.11
2019-03-19T22:41:59.289Z,98349.26
2019-03-19T22:44:29.597Z,98348.58
2019-03-19T22:47:00.390Z,98354.78
2019-03-19T22:49:36.421Z,98349.77
2019-03-19T22:52:07.350Z,98354.98
2019-03-19T22:54:37.906Z,98356.91
2019-03-19T22:57:08.412Z,98353.55
2019-03-19T22:59:39.235Z,98360.84
2019-03-19T23:02:09.711Z,98359.13
2019-03-19T23:04:40.305Z,98360.84
2019-03-19T23:07:13.983Z,98352.58
2019-03-19T23:09:44.429Z,98367.34
2019-03-19T23:12:14.845Z,98365.06
2019-03-19T23:14:45.749Z,98367.18
2019-03-19T23:17:18.224Z,98376.20
2019-03-19T23:19:48.599Z,98375.13
2019-03-19T23:22:19.306Z,98379.03
2019-03-19T23:24:49.903Z,98382.69
2019-03-19T23:27:20.849Z,98390.80
2019-03-19T23:29:51.541Z,98392.73
2019-03-19T23:32:22.123Z,98395.92
2019-03-19T23:34:52.596Z,98394.73
2019-03-19T23:37:23.473Z,98398.29
2019-03-19T23:39:53.930Z,98404.39
2019-03-19T23:42:24.764Z,98403.16
2019-03-19T23:44:55.531Z,98407.22
2019-03-19T23:47:26.274Z,98410.53
2019-03-19T23:49:56.882Z,98423.98
2019-03-19T23:52:27.276Z,98419.15
2019-03-19T23:54:57.975Z,98425.67
2019-03-19T23:57:28.826Z,98417.72
2019-03-19T23:59:59.531Z,98422.80
